KLIT/LIT METAR and TAF weather

Enter ICAO airport designator
Station Type Date Time Source
KLIT METAR 2018/12/13 05:53 UTC NOAA

KLIT 130553Z 11003KT 7SM -RA OVC037 09/08 A2993 RMK AO2 RAE0457B17 SLP138 P0000 60000 T00890078 10100 20083 401000061 56012


Station Type Date Time Source
KLIT Decoded METAR 2018/12/13 05:53 UTC NOAA

LITTLE ROCK ADAMS FIELD, AR, United States (KLIT) 34-44N 92-14W 79M
Dec 13, 2018 - 12:53 AM EST / 2018.12.13 0553 UTC
Wind: from the ESE (110 degrees) at 3 MPH (3 KT):0
Visibility: 7 mile(s):0
Sky conditions: overcast
Weather: light rain
Precipitation last hour: A trace
Temperature: 48.0 F (8.9 C)
Dew Point: 46.0 F (7.8 C)
Relative Humidity: 92%
Pressure (altimeter): 29.93 in. Hg (1013 hPa)
Pressure tendency: 0.04 inches (1.2 hPa) lower than three hours ago
ob: KLIT 130553Z 11003KT 7SM -RA OVC037 09/08 A2993 RMK AO2 RAE0457B17 SLP138 P0000 60000 T00890078 10100 20083 401000061 56012
cycle: 6

Station Type Date Time Source
KLIT TAF 2018/12/13 06:30 UTC NOAA

TAF KLIT 130529Z 1306/1406 13005KT P6SM VCSH SCT012 OVC035 WS020/20045KT
TEMPO 1306/1310 BKN012
FM131000 13006KT 5SM -RA BR SCT007 OVC012 WS020/20040KT
FM131400 13007KT 3SM -RA BR OVC007
FM140100 08007KT 4SM -RA BR VCTS OVC005CB


Example: see airport list